»·PEaware :: N215A L04-KMYF

N215A :: L04-KMYF

FLIGHT INFORMATION

Flight Status: Arrived
Operator: Privately registered:
United States
More flights under this callsign
Pilot: Ken S. (16838)
Aircraft: CESSNA 172 SKYHAWK
(C172)
More flights by this aircraft type
Origin: L04 Holtville
United States
Destination: KMYF Montgomery
United States
More flights between these airports :: More routes between these airports
Route:
File this flight plan on PilotEdge
Remarks: Sample flight plan
Altitude:
(Current/Filed)
9,000ft
Speed:
(Current/Filed)
100kts
Departed: 31-Jan-19 05:03 AM
Arrived: 31-Jan-19 06:04 AM
Distance/Time
Traveled:
94nm/1:00
Distance/Time
To Go:
Arrived

Flight Plot

Page will automatically refresh every two minutes.


Map Options




Map Legend


Flown Route
Filed Route
Departure Airport
Arrival Airport
Navaid (VOR, NDB)
Fix

Horizontal Profiles

Position Reports

Time Latitude Longitude Heading Altitude Ground
Speed
31-Jan-19 05:01 32.839783 -115.258011 320 62ft 12kts
31-Jan-19 05:02 32.840449 -115.278009 269 452ft 79kts
31-Jan-19 05:03 32.842738 -115.303848 278 1167ft 77kts
31-Jan-19 05:04 32.838953 -115.329885 264 1810ft 80kts
31-Jan-19 05:05 32.834819 -115.355899 260 2450ft 78kts
31-Jan-19 05:06 32.834040 -115.381048 270 3027ft 77kts
31-Jan-19 05:07 32.830834 -115.406784 272 3591ft 76kts
31-Jan-19 05:08 32.832104 -115.432247 264 4091ft 78kts
31-Jan-19 05:09 32.826043 -115.456993 252 4572ft 78kts
31-Jan-19 05:10 32.823010 -115.482345 274 5010ft 77kts
31-Jan-19 05:11 32.822114 -115.508455 267 5417ft 79kts
31-Jan-19 05:12 32.825268 -115.534807 265 5667ft 90kts
31-Jan-19 05:13 32.824094 -115.562106 277 6073ft 81kts
31-Jan-19 05:14 32.823883 -115.589336 271 6404ft 82kts
31-Jan-19 05:15 32.826695 -115.616417 285 6701ft 82kts
31-Jan-19 05:16 32.826587 -115.644622 273 6918ft 89kts
31-Jan-19 05:17 32.826164 -115.674558 272 7022ft 95kts
31-Jan-19 05:18 32.825699 -115.706651 272 7120ft 94kts
31-Jan-19 05:19 32.825157 -115.737186 272 7210ft 89kts
31-Jan-19 05:20 32.824594 -115.767394 272 7257ft 92kts
31-Jan-19 05:21 32.824080 -115.798675 272 7258ft 94kts
31-Jan-19 05:22 32.823597 -115.830223 273 7256ft 94kts
31-Jan-19 05:23 32.823133 -115.861893 273 7253ft 94kts
31-Jan-19 05:24 32.822686 -115.893560 273 7250ft 94kts
31-Jan-19 05:25 32.822257 -115.925186 273 7246ft 94kts
31-Jan-19 05:26 32.821768 -115.956902 273 7243ft 94kts
31-Jan-19 05:27 32.821168 -115.988897 273 7238ft 95kts
31-Jan-19 05:28 32.820462 -116.020883 273 7234ft 95kts
31-Jan-19 05:29 32.819647 -116.052763 273 7227ft 95kts
31-Jan-19 05:30 32.818714 -116.084338 273 7220ft 94kts
31-Jan-19 05:31 32.817669 -116.115949 273 7214ft 94kts
31-Jan-19 05:32 32.816526 -116.147728 273 7209ft 96kts
31-Jan-19 05:33 32.815305 -116.179684 273 7205ft 95kts
31-Jan-19 05:34 32.813973 -116.209323 273 7383ft 84kts
31-Jan-19 05:35 32.812421 -116.235846 273 7557ft 74kts
31-Jan-19 05:36 32.810643 -116.259062 273 7725ft 64kts
31-Jan-19 05:37 32.808897 -116.282868 273 7728ft 77kts
31-Jan-19 05:38 32.807391 -116.310403 273 7749ft 91kts
31-Jan-19 05:39 32.806138 -116.342007 273 7758ft 99kts
31-Jan-19 05:40 32.804939 -116.375727 273 7754ft 101kts
31-Jan-19 05:42 32.803771 -116.409814 273 7747ft 101kts
31-Jan-19 05:43 32.802624 -116.444064 273 7740ft 102kts
31-Jan-19 05:44 32.801499 -116.478283 274 7732ft 102kts
31-Jan-19 05:45 32.800390 -116.512580 274 7724ft 102kts
31-Jan-19 05:46 32.799309 -116.546562 274 7716ft 102kts
31-Jan-19 05:47 32.796180 -116.583382 266 7442ft 117kts
31-Jan-19 05:48 32.790284 -116.622748 265 7131ft 116kts
31-Jan-19 05:49 32.785512 -116.657578 267 6818ft 106kts
31-Jan-19 05:50 32.782568 -116.692450 271 6363ft 108kts
31-Jan-19 05:51 32.781148 -116.729379 271 5855ft 111kts
31-Jan-19 05:52 32.780073 -116.766154 271 5352ft 111kts
31-Jan-19 05:53 32.779300 -116.802749 272 4842ft 109kts
31-Jan-19 05:54 32.776128 -116.839114 265 4337ft 110kts
31-Jan-19 05:55 32.772301 -116.875745 265 3829ft 110kts
31-Jan-19 05:56 32.768793 -116.912335 265 3323ft 111kts
31-Jan-19 05:57 32.765539 -116.948509 265 2909ft 104kts
31-Jan-19 05:58 32.763687 -116.982369 268 2600ft 100kts
31-Jan-19 05:59 32.765065 -117.015730 279 2297ft 100kts
31-Jan-19 06:00 32.774653 -117.046067 295 2119ft 91kts
31-Jan-19 06:01 32.786714 -117.072722 306 1975ft 96kts
31-Jan-19 06:02 32.800923 -117.100815 296 1345ft 95kts
31-Jan-19 06:03 32.811493 -117.127930 297 628ft 76kts
31-Jan-19 06:03 32.817365 -117.142524 293 429ft 31kts
31-Jan-19 06:05 32.815807 -117.144524 115 429ft 15kts
31-Jan-19 06:06 32.813215 -117.140146 89 429ft 7kts
31-Jan-19 06:07 32.813293 -117.139999 26 429ft 0kts

Navigation Log

Ident Type
Flight plan parsing failed, navigation log unavailable